Terminal Aerodrome Forecast
Issued by NWS Boston, MA

Home | Current Version | Previous Version | Text Only | Print | Product List | Glossary On
Versions: 1 2 3 4 5 6 7 8 9 10 11 12 13 14 15 16 17 18 19 20 21 22 23 24 25 26 27 28 29 30 31 32 33 34 35 36 37 38 39 40 41 42
000
FTUS41 KBOX 040422 AAB
TAFBDL
TAF AMD
KBDL 040422Z 0404/0506 18012G22KT 6SM -RA BR BKN008 OVC012
     FM040800 23007KT P6SM OVC015
     FM041500 25007KT P6SM OVC035
     FM050300 30006KT 2SM BR OVC250=

USA.gov is the U.S. government's official web portal to all federal, state and local government web resources and services.